»·PEaware :: UAL400 KSAN-KSFO

UAL400 :: KSAN-KSFO

FLIGHT INFORMATION

Flight Status: Arrived
Operator:
United Airlines
More flights by this operator :: More flights under this callsign
Pilot: Vlad D. (11271)
Aircraft: MCDONNELL-DOUGLAS MD-80
(MD80)
More flights by this aircraft type
Origin: KSAN San Diego Intl-Lindbergh
United States
Destination: KSFO San Francisco Intl
United States
More flights between these airports :: More routes between these airports
Route: +PEBLE6 SXC VTU RZS SERFR SERFR2
File this flight plan on PilotEdge
Remarks: Flown with Virtual United
Altitude:
(Current/Filed)
32,000ft
Speed:
(Current/Filed)
450kts
Departed: 21-Jun-16 01:18 PM
Arrived: 21-Jun-16 02:25 PM
Distance/Time
Traveled:
388nm/1:07
Distance/Time
To Go:
Arrived

Flight Plot

Page will automatically refresh every two minutes.


Map Options




Map Legend


Flown Route
Filed Route
Departure Airport
Arrival Airport
Navaid (VOR, NDB)
Fix

Horizontal Profiles

Position Reports

Time Latitude Longitude Heading Altitude Ground
Speed
21-Jun-16 12:29 32.732365 -117.202837 203 16ft 0kts
21-Jun-16 12:30 32.732365 -117.202837 203 16ft 0kts
21-Jun-16 12:31 32.732365 -117.202837 203 16ft 0kts
21-Jun-16 12:32 32.732365 -117.202837 203 16ft 0kts
21-Jun-16 12:33 32.732365 -117.202837 203 16ft 0kts
21-Jun-16 12:34 32.732365 -117.202837 203 16ft 0kts
21-Jun-16 12:35 32.732365 -117.202837 203 16ft 0kts
21-Jun-16 12:36 32.732365 -117.202837 203 16ft 0kts
21-Jun-16 12:37 32.732365 -117.202837 203 16ft 0kts
21-Jun-16 12:38 32.732365 -117.202837 203 16ft 0kts
21-Jun-16 12:39 32.732365 -117.202837 203 16ft 0kts
21-Jun-16 12:40 32.732365 -117.202837 203 16ft 0kts
21-Jun-16 12:41 32.732365 -117.202837 203 16ft 0kts
21-Jun-16 12:42 32.732365 -117.202837 203 16ft 0kts
21-Jun-16 12:43 32.732365 -117.202837 203 16ft 0kts
21-Jun-16 12:44 32.732365 -117.202837 203 16ft 0kts
21-Jun-16 12:45 32.732365 -117.202837 203 16ft 0kts
21-Jun-16 12:46 32.732365 -117.202837 203 16ft 0kts
21-Jun-16 12:47 32.732365 -117.202837 203 16ft 0kts
21-Jun-16 12:48 32.732365 -117.202837 203 16ft 0kts
21-Jun-16 12:49 32.732365 -117.202837 203 16ft 0kts
21-Jun-16 12:50 32.732365 -117.202837 203 16ft 0kts
21-Jun-16 12:51 32.732365 -117.202837 203 16ft 0kts
21-Jun-16 12:52 32.732365 -117.202837 203 16ft 0kts
21-Jun-16 12:53 32.732365 -117.202837 203 16ft 0kts
21-Jun-16 12:54 32.732365 -117.202837 203 16ft 0kts
21-Jun-16 12:55 32.732365 -117.202837 203 16ft 0kts
21-Jun-16 12:56 32.732502 -117.202764 205 16ft 0kts
21-Jun-16 12:57 32.732698 -117.202854 79 16ft 0kts
21-Jun-16 12:58 32.733047 -117.202634 15 16ft 0kts
21-Jun-16 12:59 32.733047 -117.202634 15 16ft 0kts
21-Jun-16 13:00 32.733047 -117.202634 15 16ft 0kts
21-Jun-16 13:01 32.733047 -117.202634 15 16ft 0kts
21-Jun-16 13:02 32.733047 -117.202634 15 16ft 0kts
21-Jun-16 13:03 32.733047 -117.202634 15 16ft 0kts
21-Jun-16 13:03 32.733047 -117.202634 15 16ft 0kts
21-Jun-16 13:04 32.733047 -117.202634 15 16ft 0kts
21-Jun-16 13:05 32.733047 -117.202634 15 16ft 0kts
21-Jun-16 13:06 32.734968 -117.202408 18 16ft 8kts
21-Jun-16 13:07 32.734760 -117.198950 106 16ft 21kts
21-Jun-16 13:08 32.733697 -117.194543 106 19ft 8kts
21-Jun-16 13:09 32.732551 -117.189837 106 18ft 9kts
21-Jun-16 13:10 32.731708 -117.186226 104 16ft 16kts
21-Jun-16 13:11 32.730250 -117.180309 105 19ft 12kts
21-Jun-16 13:12 32.729525 -117.177307 103 20ft 8kts
21-Jun-16 13:13 32.729496 -117.176889 85 21ft 3kts
21-Jun-16 13:14 32.731634 -117.181639 284 19ft 101kts
21-Jun-16 13:15 32.751853 -117.232731 304 1675ft 224kts
21-Jun-16 13:16 32.794014 -117.301506 304 3766ft 269kts
21-Jun-16 13:17 32.838680 -117.375538 304 6030ft 283kts
21-Jun-16 13:18 32.883834 -117.453693 304 8536ft 294kts
21-Jun-16 13:19 32.948283 -117.513176 329 11071ft 298kts
21-Jun-16 13:21 33.010559 -117.582658 307 13103ft 346kts
21-Jun-16 13:22 33.074895 -117.674316 313 14636ft 366kts
21-Jun-16 13:23 33.139326 -117.770355 309 16539ft 379kts
21-Jun-16 13:24 33.195075 -117.876386 293 18548ft 369kts
21-Jun-16 13:25 33.234193 -117.992742 291 20570ft 386kts
21-Jun-16 13:26 33.274506 -118.114301 290 22582ft 401kts
21-Jun-16 13:27 33.316131 -118.240391 290 24589ft 415kts
21-Jun-16 13:28 33.358972 -118.369971 292 26578ft 425kts
21-Jun-16 13:29 33.435375 -118.476788 328 28581ft 436kts
21-Jun-16 13:30 33.536020 -118.556027 323 30551ft 433kts
21-Jun-16 13:31 33.635624 -118.640273 323 31937ft 442kts
21-Jun-16 13:32 33.739734 -118.728248 323 32062ft 471kts
21-Jun-16 13:33 33.842030 -118.815370 323 32038ft 448kts
21-Jun-16 13:34 33.943748 -118.902304 325 32032ft 445kts
21-Jun-16 13:35 34.043640 -118.987841 325 32027ft 439kts
21-Jun-16 13:36 34.133131 -119.084070 305 32035ft 439kts
21-Jun-16 13:37 34.201773 -119.206919 303 32030ft 439kts
21-Jun-16 13:38 34.269201 -119.329725 303 32036ft 439kts
21-Jun-16 13:39 34.336512 -119.452774 303 32036ft 439kts
21-Jun-16 13:40 34.403635 -119.575902 303 32036ft 439kts
21-Jun-16 13:41 34.471127 -119.699653 303 32036ft 439kts
21-Jun-16 13:42 34.550532 -119.810877 319 32036ft 441kts
21-Jun-16 13:43 34.645149 -119.906273 320 32026ft 446kts
21-Jun-16 13:44 34.741487 -120.002850 320 32019ft 452kts
21-Jun-16 13:45 34.838354 -120.100246 320 32024ft 449kts
21-Jun-16 13:46 34.933736 -120.196450 320 32038ft 443kts
21-Jun-16 13:47 35.028413 -120.292240 320 32045ft 441kts
21-Jun-16 13:48 35.122383 -120.387611 320 32037ft 443kts
21-Jun-16 13:49 35.217511 -120.484465 320 32011ft 447kts
21-Jun-16 13:50 35.312801 -120.582042 320 32009ft 447kts
21-Jun-16 13:51 35.407896 -120.679214 320 32017ft 448kts
21-Jun-16 13:52 35.504108 -120.777863 320 32038ft 452kts
21-Jun-16 13:53 35.599968 -120.876669 319 32045ft 446kts
21-Jun-16 13:54 35.695445 -120.975422 318 32048ft 452kts
21-Jun-16 13:55 35.791426 -121.075129 318 32046ft 452kts
21-Jun-16 13:56 35.887512 -121.175201 318 31617ft 456kts
21-Jun-16 13:56 35.966997 -121.258157 317 29780ft 440kts
21-Jun-16 13:58 36.073594 -121.367652 322 27206ft 419kts
21-Jun-16 13:58 36.151136 -121.429290 323 25419ft 405kts
21-Jun-16 13:59 36.243968 -121.501952 323 23189ft 388kts
21-Jun-16 14:00 36.333087 -121.571783 324 21103ft 370kts
21-Jun-16 14:01 36.417672 -121.638213 324 20102ft 355kts
21-Jun-16 14:02 36.501458 -121.703785 323 20108ft 357kts
21-Jun-16 14:03 36.584583 -121.769571 324 18268ft 348kts
21-Jun-16 14:04 36.664656 -121.833026 324 16269ft 337kts
21-Jun-16 14:05 36.743753 -121.892462 336 14980ft 335kts
21-Jun-16 14:06 36.834205 -121.919962 344 12957ft 331kts
21-Jun-16 14:07 36.922890 -121.944801 344 10945ft 323kts
21-Jun-16 14:08 37.005730 -121.974049 340 9735ft 290kts
21-Jun-16 14:09 37.081235 -122.003543 340 8724ft 284kts
21-Jun-16 14:10 37.153962 -122.032031 342 7745ft 264kts
21-Jun-16 14:11 37.222872 -122.058973 341 6642ft 259kts
21-Jun-16 14:12 37.290343 -122.085465 341 5992ft 256kts
21-Jun-16 14:14 37.358532 -122.112335 341 5465ft 252kts
21-Jun-16 14:15 37.423023 -122.137719 342 4413ft 233kts
21-Jun-16 14:16 37.483401 -122.159172 346 3700ft 227kts
21-Jun-16 14:17 37.536555 -122.184304 316 3056ft 183kts
21-Jun-16 14:18 37.558041 -122.230991 298 2199ft 139kts
21-Jun-16 14:19 37.575831 -122.273169 298 1481ft 131kts
21-Jun-16 14:20 37.592971 -122.313823 298 786ft 129kts
21-Jun-16 14:21 37.608999 -122.351840 296 148ft 115kts
21-Jun-16 14:22 37.618620 -122.374834 291 19ft 21kts
21-Jun-16 14:23 37.618962 -122.378005 268 25ft 0kts
21-Jun-16 14:24 37.619180 -122.380849 294 29ft 10kts
21-Jun-16 14:25 37.619097 -122.383130 283 29ft 3kts
21-Jun-16 14:26 37.619177 -122.383456 290 29ft 0kts

Navigation Log

Ident Type
Flight plan parsing failed, navigation log unavailable